AAL1606 KMIA-KDCA
Flight info
| Callsign | AAL1606 |
|---|---|
| Flight time | 2h 8m |
| Altitude | 38000 |
| Route | FOLZZ3 ALYRA GRUBR Y299 SEELO GARIC RANAY TANJA WAVES CAPSS4 |
| Aircraft | B38M/M-SDE1FGHILORVWXY/HB1 |
Departure
| Time | 2026-05-04 21:03 |
|---|---|
| Airport | Miami International Airport (KMIA) |
Arrival
| Time | 2026-05-04 23:11 |
|---|---|
| Airport | Ronald Reagan Washington National Airport (KDCA) |
| Time | Latitude | Longitude | Altitude | Speed | Heading |
|---|---|---|---|---|---|
| 2026-05-04 20:29 | 25.79723 | -80.27370 | 14 ft | 0 kts | 290° |
| 2026-05-04 20:46 | 25.79723 | -80.27369 | 14 ft | 1 kts | 290° |
| 2026-05-04 20:46 | 25.79715 | -80.27343 | 14 ft | 4 kts | 283° |
| 2026-05-04 20:46 | 25.79710 | -80.27314 | 14 ft | 4 kts | 277° |
| 2026-05-04 20:46 | 25.79708 | -80.27284 | 14 ft | 4 kts | 271° |
| 2026-05-04 20:47 | 25.79708 | -80.27254 | 14 ft | 4 kts | 268° |
| 2026-05-04 20:47 | 25.79708 | -80.27224 | 14 ft | 4 kts | 278° |
| 2026-05-04 20:47 | 25.79702 | -80.27203 | 18 ft | 3 kts | 347° |
| 2026-05-04 20:47 | 25.79700 | -80.27202 | 18 ft | 0 kts | 357° |
| 2026-05-04 20:54 | 25.79731 | -80.27166 | 14 ft | 11 kts | 77° |
| 2026-05-04 20:54 | 25.79760 | -80.27092 | 14 ft | 11 kts | 44° |
| 2026-05-04 20:54 | 25.79816 | -80.27037 | 16 ft | 10 kts | 39° |
| 2026-05-04 20:54 | 25.79877 | -80.26997 | 14 ft | 10 kts | 25° |
| 2026-05-04 20:55 | 25.79944 | -80.26984 | 14 ft | 10 kts | 340° |
| 2026-05-04 20:55 | 25.79999 | -80.27044 | 16 ft | 12 kts | 309° |
| 2026-05-04 20:55 | 25.80059 | -80.27107 | 15 ft | 13 kts | 324° |
| 2026-05-04 20:55 | 25.80082 | -80.27201 | 15 ft | 13 kts | 268° |
| 2026-05-04 20:56 | 25.80078 | -80.27302 | 15 ft | 14 kts | 268° |
| 2026-05-04 20:56 | 25.80073 | -80.27431 | 15 ft | 19 kts | 266° |
| 2026-05-04 20:56 | 25.80068 | -80.27577 | 14 ft | 19 kts | 268° |
| 2026-05-04 20:56 | 25.80060 | -80.27718 | 14 ft | 18 kts | 268° |
| 2026-05-04 20:57 | 25.80055 | -80.27856 | 13 ft | 18 kts | 267° |
| 2026-05-04 20:57 | 25.80050 | -80.27991 | 13 ft | 18 kts | 267° |
| 2026-05-04 20:57 | 25.80042 | -80.28134 | 13 ft | 18 kts | 268° |
| 2026-05-04 20:57 | 25.80038 | -80.28272 | 14 ft | 18 kts | 268° |
| 2026-05-04 20:58 | 25.80032 | -80.28406 | 14 ft | 17 kts | 266° |
| 2026-05-04 20:58 | 25.80026 | -80.28535 | 14 ft | 16 kts | 266° |
| 2026-05-04 20:58 | 25.80020 | -80.28667 | 15 ft | 19 kts | 267° |
| 2026-05-04 20:58 | 25.80013 | -80.28811 | 15 ft | 18 kts | 267° |
| 2026-05-04 20:59 | 25.80006 | -80.28949 | 15 ft | 18 kts | 267° |
| 2026-05-04 20:59 | 25.80002 | -80.29080 | 15 ft | 17 kts | 269° |
| 2026-05-04 20:59 | 25.79999 | -80.29208 | 15 ft | 16 kts | 268° |
| 2026-05-04 20:59 | 25.79992 | -80.29331 | 17 ft | 16 kts | 265° |
| 2026-05-04 21:00 | 25.79986 | -80.29450 | 14 ft | 15 kts | 270° |
| 2026-05-04 21:00 | 25.79984 | -80.29563 | 13 ft | 14 kts | 268° |
| 2026-05-04 21:00 | 25.79980 | -80.29670 | 13 ft | 14 kts | 266° |
| 2026-05-04 21:00 | 25.79975 | -80.29761 | 13 ft | 13 kts | 267° |
| 2026-05-04 21:01 | 25.79972 | -80.29862 | 13 ft | 13 kts | 267° |
| 2026-05-04 21:01 | 25.79967 | -80.29952 | 12 ft | 12 kts | 266° |
| 2026-05-04 21:01 | 25.79964 | -80.30046 | 13 ft | 12 kts | 272° |
| 2026-05-04 21:01 | 25.79986 | -80.30108 | 14 ft | 0 kts | 317° |
| 2026-05-04 21:02 | 25.79994 | -80.30114 | 13 ft | 8 kts | 323° |
| 2026-05-04 21:02 | 25.80057 | -80.30119 | 13 ft | 10 kts | 40° |
| 2026-05-04 21:02 | 25.80074 | -80.30067 | 12 ft | 0 kts | 83° |
| 2026-05-04 21:03 | 25.80080 | -80.29956 | 13 ft | 50 kts | 86° |
| 2026-05-04 21:03 | 25.80110 | -80.29240 | 16 ft | 132 kts | 87° |
| 2026-05-04 21:03 | 25.80160 | -80.27995 | 288 ft | 180 kts | 86° |
| 2026-05-04 21:03 | 25.80199 | -80.26544 | 1096 ft | 202 kts | 84° |
| 2026-05-04 21:04 | 25.79994 | -80.24879 | 1585 ft | 234 kts | 108° |
| 2026-05-04 21:04 | 25.79253 | -80.23237 | 2059 ft | 241 kts | 115° |
| 2026-05-04 21:04 | 25.78473 | -80.21592 | 2489 ft | 242 kts | 114° |
| 2026-05-04 21:04 | 25.77693 | -80.19921 | 3000 ft | 243 kts | 113° |
| 2026-05-04 21:05 | 25.76918 | -80.18264 | 3498 ft | 247 kts | 114° |
| 2026-05-04 21:05 | 25.76091 | -80.16562 | 3985 ft | 254 kts | 117° |
| 2026-05-04 21:05 | 25.75220 | -80.14803 | 4493 ft | 264 kts | 116° |
| 2026-05-04 21:05 | 25.74376 | -80.12979 | 4986 ft | 266 kts | 108° |
| 2026-05-04 21:06 | 25.74222 | -80.11000 | 5444 ft | 262 kts | 75° |
| 2026-05-04 21:06 | 25.74929 | -80.09145 | 5973 ft | 265 kts | 52° |
| 2026-05-04 21:06 | 25.76105 | -80.07520 | 6506 ft | 274 kts | 46° |
| 2026-05-04 21:06 | 25.77379 | -80.05917 | 6982 ft | 279 kts | 45° |
| 2026-05-04 21:07 | 25.78670 | -80.04305 | 7424 ft | 278 kts | 45° |
| 2026-05-04 21:07 | 25.79962 | -80.02710 | 7903 ft | 279 kts | 45° |
| 2026-05-04 21:07 | 25.81244 | -80.01122 | 8385 ft | 281 kts | 45° |
| 2026-05-04 21:07 | 25.82546 | -79.99497 | 8873 ft | 283 kts | 45° |
| 2026-05-04 21:08 | 25.83857 | -79.97849 | 9376 ft | 287 kts | 45° |
| 2026-05-04 21:08 | 25.85185 | -79.96173 | 9896 ft | 291 kts | 45° |
| 2026-05-04 21:08 | 25.86554 | -79.94444 | 10204 ft | 309 kts | 45° |
| 2026-05-04 21:08 | 25.88035 | -79.92573 | 10388 ft | 334 kts | 45° |
| 2026-05-04 21:09 | 25.89625 | -79.90559 | 10567 ft | 358 kts | 46° |
| 2026-05-04 21:09 | 25.91297 | -79.88433 | 10995 ft | 371 kts | 46° |
| 2026-05-04 21:09 | 25.93004 | -79.86257 | 11621 ft | 377 kts | 46° |
| 2026-05-04 21:09 | 25.94736 | -79.84045 | 12311 ft | 381 kts | 46° |
| 2026-05-04 21:10 | 25.96488 | -79.81807 | 12983 ft | 386 kts | 46° |
| 2026-05-04 21:10 | 25.98246 | -79.79564 | 13636 ft | 392 kts | 46° |
| 2026-05-04 21:10 | 26.00057 | -79.77253 | 14185 ft | 398 kts | 46° |
| 2026-05-04 21:10 | 26.01890 | -79.74911 | 14774 ft | 402 kts | 46° |
| 2026-05-04 21:11 | 26.03733 | -79.72557 | 15382 ft | 405 kts | 46° |
| 2026-05-04 21:11 | 26.05572 | -79.70205 | 15977 ft | 408 kts | 45° |
| 2026-05-04 21:11 | 26.07449 | -79.67805 | 16537 ft | 412 kts | 46° |
| 2026-05-04 21:11 | 26.09340 | -79.65386 | 17093 ft | 416 kts | 45° |
| 2026-05-04 21:12 | 26.11237 | -79.62922 | 17647 ft | 421 kts | 48° |
| 2026-05-04 21:12 | 26.13004 | -79.60297 | 18197 ft | 426 kts | 52° |
| 2026-05-04 21:12 | 26.14700 | -79.57565 | 18682 ft | 430 kts | 53° |
| 2026-05-04 21:12 | 26.16388 | -79.54798 | 19160 ft | 433 kts | 53° |
| 2026-05-04 21:13 | 26.18072 | -79.52062 | 19642 ft | 436 kts | 52° |
| 2026-05-04 21:13 | 26.19811 | -79.49275 | 20150 ft | 439 kts | 52° |
| 2026-05-04 21:13 | 26.21574 | -79.46478 | 20636 ft | 442 kts | 52° |
| 2026-05-04 21:13 | 26.23353 | -79.43670 | 21099 ft | 445 kts | 52° |
| 2026-05-04 21:14 | 26.25151 | -79.40835 | 21541 ft | 448 kts | 52° |
| 2026-05-04 21:14 | 26.26936 | -79.38017 | 22002 ft | 452 kts | 52° |
| 2026-05-04 21:14 | 26.28827 | -79.35202 | 22458 ft | 453 kts | 44° |
| 2026-05-04 21:14 | 26.31256 | -79.33032 | 22863 ft | 446 kts | 27° |
| 2026-05-04 21:15 | 26.33913 | -79.31215 | 23340 ft | 448 kts | 27° |
| 2026-05-04 21:15 | 26.36577 | -79.29381 | 23707 ft | 452 kts | 27° |
| 2026-05-04 21:15 | 26.39261 | -79.27513 | 24051 ft | 455 kts | 27° |
| 2026-05-04 21:15 | 26.41942 | -79.25627 | 24440 ft | 456 kts | 27° |
| 2026-05-04 21:16 | 26.44625 | -79.23724 | 24835 ft | 458 kts | 27° |
| 2026-05-04 21:16 | 26.47286 | -79.21829 | 25224 ft | 460 kts | 27° |
| 2026-05-04 21:16 | 26.50002 | -79.19890 | 25525 ft | 464 kts | 27° |
| 2026-05-04 21:16 | 26.52730 | -79.17940 | 25868 ft | 467 kts | 27° |
| 2026-05-04 21:17 | 26.55476 | -79.15976 | 26245 ft | 468 kts | 27° |
| 2026-05-04 21:17 | 26.58230 | -79.14005 | 26608 ft | 470 kts | 27° |
| 2026-05-04 21:17 | 26.60959 | -79.12052 | 26942 ft | 472 kts | 27° |
| 2026-05-04 21:17 | 26.63738 | -79.10062 | 27272 ft | 475 kts | 27° |
| 2026-05-04 21:18 | 26.66528 | -79.08064 | 27601 ft | 477 kts | 27° |
| 2026-05-04 21:18 | 26.69327 | -79.06058 | 27919 ft | 479 kts | 27° |
| 2026-05-04 21:18 | 26.72151 | -79.04032 | 28242 ft | 481 kts | 27° |
| 2026-05-04 21:18 | 26.74974 | -79.02007 | 28573 ft | 483 kts | 26° |
| 2026-05-04 21:19 | 26.77782 | -78.99991 | 28887 ft | 485 kts | 26° |
| 2026-05-04 21:19 | 26.80634 | -78.97941 | 29198 ft | 487 kts | 26° |
| 2026-05-04 21:19 | 26.83495 | -78.95885 | 29499 ft | 489 kts | 26° |
| 2026-05-04 21:19 | 26.86373 | -78.93815 | 29786 ft | 491 kts | 26° |
| 2026-05-04 21:20 | 26.89248 | -78.91746 | 30061 ft | 493 kts | 26° |
| 2026-05-04 21:20 | 26.92109 | -78.89685 | 30297 ft | 494 kts | 26° |
| 2026-05-04 21:20 | 26.95008 | -78.87596 | 30518 ft | 497 kts | 26° |
| 2026-05-04 21:20 | 26.97926 | -78.85492 | 30744 ft | 498 kts | 26° |
| 2026-05-04 21:21 | 27.00851 | -78.83381 | 30978 ft | 500 kts | 26° |
| 2026-05-04 21:21 | 27.03776 | -78.81267 | 31309 ft | 500 kts | 26° |
| 2026-05-04 21:21 | 27.06702 | -78.79152 | 31641 ft | 499 kts | 26° |
| 2026-05-04 21:21 | 27.09619 | -78.77041 | 31962 ft | 498 kts | 26° |
| 2026-05-04 21:22 | 27.12494 | -78.74961 | 32237 ft | 498 kts | 26° |
| 2026-05-04 21:22 | 27.15417 | -78.72846 | 32510 ft | 498 kts | 26° |
| 2026-05-04 21:22 | 27.18345 | -78.70725 | 32808 ft | 498 kts | 26° |
| 2026-05-04 21:22 | 27.21253 | -78.68617 | 33096 ft | 498 kts | 26° |
| 2026-05-04 21:23 | 27.24161 | -78.66508 | 33376 ft | 497 kts | 26° |
| 2026-05-04 21:23 | 27.27050 | -78.64450 | 33622 ft | 495 kts | 22° |
| 2026-05-04 21:23 | 27.30191 | -78.63029 | 33804 ft | 479 kts | 4° |
| 2026-05-04 21:23 | 27.33447 | -78.62504 | 34105 ft | 469 kts | 358° |
| 2026-05-04 21:24 | 27.36694 | -78.62124 | 34350 ft | 468 kts | 358° |
| 2026-05-04 21:24 | 27.39938 | -78.61757 | 34530 ft | 469 kts | 358° |
| 2026-05-04 21:24 | 27.43192 | -78.61381 | 34709 ft | 471 kts | 358° |
| 2026-05-04 21:24 | 27.46420 | -78.60993 | 34933 ft | 471 kts | 358° |
| 2026-05-04 21:25 | 27.49667 | -78.60588 | 35163 ft | 470 kts | 358° |
| 2026-05-04 21:25 | 27.52922 | -78.60172 | 35358 ft | 471 kts | 358° |
| 2026-05-04 21:25 | 27.56196 | -78.59749 | 35549 ft | 472 kts | 358° |
| 2026-05-04 21:25 | 27.59462 | -78.59324 | 35770 ft | 472 kts | 358° |
| 2026-05-04 21:26 | 27.62730 | -78.58897 | 36010 ft | 472 kts | 358° |
| 2026-05-04 21:26 | 27.65961 | -78.58475 | 36207 ft | 472 kts | 358° |
| 2026-05-04 21:26 | 27.69223 | -78.58049 | 36378 ft | 472 kts | 358° |
| 2026-05-04 21:26 | 27.72496 | -78.57622 | 36567 ft | 472 kts | 358° |
| 2026-05-04 21:27 | 27.75765 | -78.57196 | 36766 ft | 472 kts | 358° |
| 2026-05-04 21:27 | 27.77930 | -78.56914 | 36880 ft | 472 kts | 358° |
| 2026-05-04 21:27 | 27.81198 | -78.56488 | 37059 ft | 473 kts | 358° |
| 2026-05-04 21:27 | 27.84472 | -78.56061 | 37245 ft | 472 kts | 358° |
| 2026-05-04 21:28 | 27.88800 | -78.55495 | 37501 ft | 472 kts | 358° |
| 2026-05-04 21:28 | 27.91001 | -78.55208 | 37636 ft | 473 kts | 358° |
| 2026-05-04 21:28 | 27.94284 | -78.54779 | 37796 ft | 473 kts | 358° |
| 2026-05-04 21:28 | 27.97518 | -78.54357 | 37924 ft | 474 kts | 358° |
| 2026-05-04 21:29 | 28.01290 | -78.53864 | 38082 ft | 474 kts | 358° |
| 2026-05-04 21:29 | 28.04569 | -78.53434 | 38257 ft | 474 kts | 358° |
| 2026-05-04 21:29 | 28.07805 | -78.53009 | 38447 ft | 473 kts | 358° |
| 2026-05-04 21:29 | 28.11081 | -78.52578 | 38620 ft | 473 kts | 358° |
| 2026-05-04 21:30 | 28.14351 | -78.52149 | 38726 ft | 473 kts | 358° |
| 2026-05-04 21:30 | 28.17632 | -78.51719 | 38837 ft | 474 kts | 357° |
| 2026-05-04 21:30 | 28.20910 | -78.51288 | 39063 ft | 471 kts | 358° |
| 2026-05-04 21:30 | 28.24174 | -78.50859 | 39033 ft | 474 kts | 358° |
| 2026-05-04 21:31 | 28.33944 | -78.49572 | 39048 ft | 470 kts | 358° |
| 2026-05-04 21:32 | 28.40442 | -78.48714 | 39053 ft | 468 kts | 357° |
| 2026-05-04 21:32 | 28.46900 | -78.47861 | 39083 ft | 466 kts | 358° |
| 2026-05-04 21:33 | 28.53297 | -78.47017 | 39066 ft | 465 kts | 358° |
| 2026-05-04 21:33 | 28.59727 | -78.46168 | 39050 ft | 464 kts | 358° |
| 2026-05-04 21:34 | 28.66161 | -78.45316 | 39072 ft | 464 kts | 358° |
| 2026-05-04 21:34 | 28.72568 | -78.44467 | 39060 ft | 465 kts | 358° |
| 2026-05-04 21:35 | 28.79012 | -78.43613 | 39071 ft | 467 kts | 358° |
| 2026-05-04 21:35 | 28.85450 | -78.42757 | 39070 ft | 468 kts | 358° |
| 2026-05-04 21:36 | 28.91945 | -78.41892 | 39065 ft | 469 kts | 358° |
| 2026-05-04 21:36 | 28.98453 | -78.41024 | 39069 ft | 470 kts | 358° |
| 2026-05-04 21:37 | 29.04954 | -78.40156 | 39111 ft | 470 kts | 358° |
| 2026-05-04 21:37 | 29.11421 | -78.39291 | 39077 ft | 471 kts | 358° |
| 2026-05-04 21:38 | 29.17928 | -78.38420 | 39073 ft | 470 kts | 358° |
| 2026-05-04 21:38 | 29.24415 | -78.37550 | 39068 ft | 468 kts | 358° |
| 2026-05-04 21:39 | 29.30876 | -78.36683 | 39068 ft | 466 kts | 358° |
| 2026-05-04 21:39 | 29.37276 | -78.35823 | 39075 ft | 464 kts | 358° |
| 2026-05-04 21:40 | 29.43688 | -78.34961 | 39079 ft | 463 kts | 358° |
| 2026-05-04 21:40 | 29.50015 | -78.34633 | 39060 ft | 438 kts | 338° |
| 2026-05-04 21:41 | 29.55788 | -78.36529 | 39081 ft | 430 kts | 334° |
| 2026-05-04 21:41 | 29.61509 | -78.38457 | 39111 ft | 432 kts | 334° |
| 2026-05-04 21:42 | 29.67299 | -78.40363 | 39093 ft | 434 kts | 335° |
| 2026-05-04 21:42 | 29.73123 | -78.42257 | 39086 ft | 435 kts | 335° |
| 2026-05-04 21:43 | 29.78960 | -78.44155 | 39088 ft | 436 kts | 335° |
| 2026-05-04 21:43 | 29.84797 | -78.46055 | 39085 ft | 438 kts | 335° |
| 2026-05-04 21:44 | 29.90674 | -78.47972 | 39121 ft | 439 kts | 334° |
| 2026-05-04 21:44 | 29.96571 | -78.49899 | 39098 ft | 440 kts | 334° |
| 2026-05-04 21:45 | 30.02434 | -78.51815 | 39087 ft | 440 kts | 334° |
| 2026-05-04 21:45 | 30.08330 | -78.53745 | 39088 ft | 439 kts | 334° |
| 2026-05-04 21:46 | 30.14307 | -78.55428 | 39081 ft | 449 kts | 344° |
| 2026-05-04 21:46 | 30.17469 | -78.55607 | 39089 ft | 460 kts | 354° |
| 2026-05-04 21:46 | 30.20691 | -78.55245 | 39100 ft | 466 kts | 358° |
| 2026-05-04 21:47 | 30.27083 | -78.54214 | 39091 ft | 466 kts | 359° |
| 2026-05-04 21:47 | 30.33495 | -78.53222 | 39090 ft | 464 kts | 358° |
| 2026-05-04 21:48 | 30.39906 | -78.52300 | 39089 ft | 463 kts | 358° |
| 2026-05-04 21:48 | 30.46258 | -78.51350 | 39121 ft | 463 kts | 358° |
| 2026-05-04 21:49 | 30.52655 | -78.50307 | 39105 ft | 464 kts | 359° |
| 2026-05-04 21:49 | 30.59029 | -78.49258 | 39096 ft | 464 kts | 359° |
| 2026-05-04 21:50 | 30.65429 | -78.48214 | 39094 ft | 465 kts | 358° |
| 2026-05-04 21:50 | 30.71838 | -78.47174 | 39101 ft | 465 kts | 358° |
| 2026-05-04 21:51 | 30.78274 | -78.46133 | 39098 ft | 467 kts | 358° |
| 2026-05-04 21:51 | 30.84692 | -78.45088 | 39108 ft | 468 kts | 358° |
| 2026-05-04 21:52 | 30.91168 | -78.44032 | 39104 ft | 469 kts | 358° |
| 2026-05-04 21:52 | 30.97614 | -78.42980 | 39104 ft | 470 kts | 358° |
| 2026-05-04 21:53 | 31.04116 | -78.41919 | 39109 ft | 472 kts | 358° |
| 2026-05-04 21:53 | 31.10640 | -78.40852 | 39109 ft | 473 kts | 358° |
| 2026-05-04 21:54 | 31.17128 | -78.39789 | 39103 ft | 473 kts | 358° |
| 2026-05-04 21:54 | 31.23640 | -78.38720 | 39107 ft | 473 kts | 358° |
| 2026-05-04 21:55 | 31.30132 | -78.37654 | 39124 ft | 474 kts | 358° |
| 2026-05-04 21:55 | 31.36680 | -78.36578 | 39122 ft | 474 kts | 358° |
| 2026-05-04 21:56 | 31.42119 | -78.35682 | 39106 ft | 474 kts | 358° |
| 2026-05-04 21:56 | 31.49717 | -78.34428 | 39108 ft | 473 kts | 358° |
| 2026-05-04 21:57 | 31.56244 | -78.33350 | 39144 ft | 473 kts | 358° |
| 2026-05-04 21:57 | 31.61686 | -78.32451 | 39115 ft | 473 kts | 358° |
| 2026-05-04 21:58 | 31.68221 | -78.31368 | 39105 ft | 473 kts | 358° |
| 2026-05-04 21:58 | 31.74691 | -78.30295 | 39108 ft | 472 kts | 358° |
| 2026-05-04 21:59 | 31.81185 | -78.29217 | 39137 ft | 471 kts | 358° |
| 2026-05-04 21:59 | 31.87678 | -78.28137 | 39114 ft | 470 kts | 358° |
| 2026-05-04 22:00 | 31.94160 | -78.27058 | 39098 ft | 469 kts | 358° |
| 2026-05-04 22:00 | 32.00594 | -78.25985 | 39109 ft | 468 kts | 358° |
| 2026-05-04 22:01 | 32.07048 | -78.24963 | 39114 ft | 466 kts | 356° |
| 2026-05-04 22:01 | 32.13495 | -78.24042 | 39114 ft | 466 kts | 356° |
| 2026-05-04 22:02 | 32.19934 | -78.23125 | 39114 ft | 465 kts | 356° |
| 2026-05-04 22:02 | 32.26320 | -78.22201 | 39108 ft | 464 kts | 357° |
| 2026-05-04 22:03 | 32.32751 | -78.21261 | 39110 ft | 463 kts | 357° |
| 2026-05-04 22:03 | 32.39108 | -78.20330 | 39114 ft | 463 kts | 357° |
| 2026-05-04 22:04 | 32.45496 | -78.19393 | 39111 ft | 462 kts | 357° |
| 2026-05-04 22:04 | 32.51874 | -78.18456 | 39109 ft | 461 kts | 357° |
| 2026-05-04 22:05 | 32.58246 | -78.17519 | 39105 ft | 460 kts | 357° |
| 2026-05-04 22:05 | 32.64546 | -78.16592 | 39112 ft | 460 kts | 358° |
| 2026-05-04 22:06 | 32.70905 | -78.15654 | 39111 ft | 460 kts | 358° |
| 2026-05-04 22:06 | 32.77259 | -78.14716 | 39104 ft | 459 kts | 358° |
| 2026-05-04 22:07 | 32.83576 | -78.13782 | 39103 ft | 459 kts | 358° |
| 2026-05-04 22:07 | 32.89921 | -78.12842 | 39103 ft | 458 kts | 358° |
| 2026-05-04 22:08 | 32.96265 | -78.11901 | 39101 ft | 458 kts | 358° |
| 2026-05-04 22:08 | 33.02595 | -78.10961 | 39102 ft | 458 kts | 358° |
| 2026-05-04 22:09 | 33.08891 | -78.10025 | 39104 ft | 459 kts | 358° |
| 2026-05-04 22:09 | 33.15243 | -78.09080 | 39118 ft | 460 kts | 358° |
| 2026-05-04 22:10 | 33.21600 | -78.08131 | 39112 ft | 460 kts | 358° |
| 2026-05-04 22:10 | 33.27949 | -78.07182 | 39102 ft | 460 kts | 358° |
| 2026-05-04 22:11 | 33.34267 | -78.06236 | 39108 ft | 459 kts | 358° |
| 2026-05-04 22:11 | 33.40608 | -78.05286 | 39120 ft | 459 kts | 359° |
| 2026-05-04 22:12 | 33.46961 | -78.04333 | 39107 ft | 459 kts | 359° |
| 2026-05-04 22:12 | 33.53278 | -78.03383 | 39098 ft | 458 kts | 359° |
| 2026-05-04 22:13 | 33.59612 | -78.02430 | 39100 ft | 457 kts | 359° |
| 2026-05-04 22:13 | 33.65879 | -78.01485 | 39126 ft | 457 kts | 359° |
| 2026-05-04 22:14 | 33.72187 | -78.00533 | 39110 ft | 456 kts | 359° |
| 2026-05-04 22:14 | 33.78497 | -77.99579 | 39092 ft | 456 kts | 359° |
| 2026-05-04 22:15 | 33.84795 | -77.98625 | 39092 ft | 455 kts | 359° |
| 2026-05-04 22:15 | 33.91026 | -77.97741 | 39107 ft | 452 kts | 358° |
| 2026-05-04 22:16 | 33.97289 | -77.97072 | 39094 ft | 451 kts | 357° |
| 2026-05-04 22:16 | 34.03559 | -77.96432 | 39090 ft | 451 kts | 357° |
| 2026-05-04 22:17 | 34.09786 | -77.95770 | 39089 ft | 451 kts | 357° |
| 2026-05-04 22:17 | 34.16047 | -77.95087 | 39101 ft | 451 kts | 358° |
| 2026-05-04 22:18 | 34.22324 | -77.94395 | 39088 ft | 452 kts | 358° |
| 2026-05-04 22:18 | 34.28611 | -77.93701 | 39085 ft | 453 kts | 358° |
| 2026-05-04 22:19 | 34.34857 | -77.93011 | 39083 ft | 453 kts | 358° |
| 2026-05-04 22:19 | 34.41148 | -77.92315 | 39109 ft | 454 kts | 358° |
| 2026-05-04 22:20 | 34.47440 | -77.91618 | 39080 ft | 454 kts | 358° |
| 2026-05-04 22:20 | 34.53703 | -77.90924 | 39069 ft | 454 kts | 358° |
| 2026-05-04 22:21 | 34.59997 | -77.90224 | 39066 ft | 453 kts | 358° |
| 2026-05-04 22:21 | 34.66280 | -77.89525 | 39091 ft | 453 kts | 358° |
| 2026-05-04 22:22 | 34.72570 | -77.88824 | 39071 ft | 452 kts | 358° |
| 2026-05-04 22:22 | 34.78831 | -77.88125 | 39061 ft | 451 kts | 358° |
| 2026-05-04 22:23 | 34.85045 | -77.87431 | 39060 ft | 450 kts | 358° |
| 2026-05-04 22:23 | 34.91270 | -77.86734 | 39069 ft | 448 kts | 358° |
| 2026-05-04 22:24 | 34.97481 | -77.86038 | 39051 ft | 447 kts | 358° |
| 2026-05-04 22:24 | 35.03675 | -77.85343 | 39043 ft | 446 kts | 358° |
| 2026-05-04 22:25 | 35.09860 | -77.84648 | 39046 ft | 445 kts | 358° |
| 2026-05-04 22:25 | 35.15990 | -77.83958 | 39058 ft | 445 kts | 358° |
| 2026-05-04 22:26 | 35.22158 | -77.83263 | 39043 ft | 445 kts | 358° |
| 2026-05-04 22:26 | 35.28324 | -77.82567 | 39038 ft | 445 kts | 358° |
| 2026-05-04 22:27 | 35.34496 | -77.81869 | 39037 ft | 446 kts | 358° |
| 2026-05-04 22:27 | 35.40686 | -77.81167 | 39030 ft | 446 kts | 358° |
| 2026-05-04 22:28 | 35.46852 | -77.80437 | 39030 ft | 449 kts | 359° |
| 2026-05-04 22:28 | 35.53069 | -77.79372 | 39033 ft | 452 kts | 1° |
| 2026-05-04 22:29 | 35.59292 | -77.78214 | 39032 ft | 452 kts | 1° |
| 2026-05-04 22:29 | 35.65533 | -77.77087 | 39037 ft | 453 kts | 1° |
| 2026-05-04 22:30 | 35.71746 | -77.75991 | 39030 ft | 454 kts | 1° |
| 2026-05-04 22:30 | 35.78020 | -77.74892 | 39021 ft | 454 kts | 1° |
| 2026-05-04 22:31 | 35.84282 | -77.73793 | 39019 ft | 454 kts | 1° |
| 2026-05-04 22:31 | 35.90545 | -77.72691 | 39021 ft | 454 kts | 1° |
| 2026-05-04 22:32 | 35.96780 | -77.71591 | 39012 ft | 454 kts | 1° |
| 2026-05-04 22:32 | 36.03030 | -77.70487 | 39005 ft | 452 kts | 1° |
| 2026-05-04 22:33 | 36.09260 | -77.69384 | 39008 ft | 451 kts | 1° |
| 2026-05-04 22:33 | 36.15472 | -77.68284 | 39006 ft | 450 kts | 1° |
| 2026-05-04 22:34 | 36.21619 | -77.67194 | 39000 ft | 448 kts | 1° |
| 2026-05-04 22:34 | 36.27793 | -77.66098 | 38736 ft | 452 kts | 1° |
| 2026-05-04 22:34 | 36.30905 | -77.65546 | 38220 ft | 450 kts | 1° |
| 2026-05-04 22:35 | 36.33986 | -77.64994 | 37726 ft | 445 kts | 1° |
| 2026-05-04 22:35 | 36.37043 | -77.64447 | 37248 ft | 442 kts | 1° |
| 2026-05-04 22:35 | 36.40077 | -77.63905 | 36776 ft | 439 kts | 1° |
| 2026-05-04 22:35 | 36.43066 | -77.63372 | 36316 ft | 437 kts | 1° |
| 2026-05-04 22:36 | 36.46065 | -77.62838 | 35862 ft | 434 kts | 1° |
| 2026-05-04 22:36 | 36.49049 | -77.62305 | 35412 ft | 432 kts | 0° |
| 2026-05-04 22:36 | 36.52023 | -77.61785 | 34975 ft | 429 kts | 360° |
| 2026-05-04 22:36 | 36.54984 | -77.61306 | 34540 ft | 427 kts | 359° |
| 2026-05-04 22:37 | 36.57923 | -77.60848 | 34124 ft | 425 kts | 359° |
| 2026-05-04 22:37 | 36.60850 | -77.60397 | 33706 ft | 422 kts | 359° |
| 2026-05-04 22:37 | 36.63762 | -77.59948 | 33225 ft | 420 kts | 359° |
| 2026-05-04 22:37 | 36.66654 | -77.59498 | 32738 ft | 418 kts | 359° |
| 2026-05-04 22:38 | 36.69500 | -77.59053 | 32260 ft | 415 kts | 359° |
| 2026-05-04 22:38 | 36.72363 | -77.58603 | 31779 ft | 414 kts | 360° |
| 2026-05-04 22:38 | 36.75222 | -77.58152 | 31329 ft | 412 kts | 360° |
| 2026-05-04 22:38 | 36.78074 | -77.57701 | 30879 ft | 410 kts | 0° |
| 2026-05-04 22:39 | 36.80900 | -77.57254 | 30444 ft | 409 kts | 0° |
| 2026-05-04 22:39 | 36.83714 | -77.56808 | 30030 ft | 407 kts | 0° |
| 2026-05-04 22:39 | 36.86513 | -77.56363 | 29519 ft | 404 kts | 0° |
| 2026-05-04 22:39 | 36.89294 | -77.55921 | 29008 ft | 402 kts | 0° |
| 2026-05-04 22:40 | 36.92026 | -77.55487 | 28516 ft | 399 kts | 1° |
| 2026-05-04 22:40 | 36.94777 | -77.55049 | 28015 ft | 396 kts | 1° |
| 2026-05-04 22:40 | 36.97511 | -77.54614 | 27538 ft | 394 kts | 1° |
| 2026-05-04 22:40 | 37.00215 | -77.54184 | 27065 ft | 391 kts | 1° |
| 2026-05-04 22:41 | 37.02922 | -77.53753 | 26608 ft | 389 kts | 1° |
| 2026-05-04 22:41 | 37.05605 | -77.53325 | 26153 ft | 387 kts | 1° |
| 2026-05-04 22:41 | 37.08268 | -77.52900 | 25727 ft | 385 kts | 1° |
| 2026-05-04 22:41 | 37.10880 | -77.52484 | 25292 ft | 383 kts | 1° |
| 2026-05-04 22:42 | 37.13520 | -77.52062 | 24856 ft | 381 kts | 1° |
| 2026-05-04 22:42 | 37.16147 | -77.51642 | 24429 ft | 379 kts | 1° |
| 2026-05-04 22:42 | 37.18756 | -77.51225 | 24001 ft | 377 kts | 1° |
| 2026-05-04 22:42 | 37.21352 | -77.50810 | 23592 ft | 375 kts | 1° |
| 2026-05-04 22:43 | 37.23944 | -77.50395 | 23103 ft | 374 kts | 1° |
| 2026-05-04 22:43 | 37.25658 | -77.50120 | 22779 ft | 373 kts | 1° |
| 2026-05-04 22:43 | 37.29063 | -77.49574 | 22150 ft | 370 kts | 1° |
| 2026-05-04 22:43 | 37.31619 | -77.49164 | 21679 ft | 368 kts | 1° |
| 2026-05-04 22:44 | 37.33301 | -77.48893 | 21367 ft | 367 kts | 1° |
| 2026-05-04 22:44 | 37.35832 | -77.48486 | 21014 ft | 362 kts | 1° |
| 2026-05-04 22:44 | 37.38287 | -77.48087 | 20972 ft | 349 kts | 1° |
| 2026-05-04 22:44 | 37.40650 | -77.47703 | 20954 ft | 336 kts | 1° |
| 2026-05-04 22:45 | 37.42917 | -77.47335 | 20954 ft | 323 kts | 1° |
| 2026-05-04 22:45 | 37.47333 | -77.46629 | 20977 ft | 320 kts | 0° |
| 2026-05-04 22:45 | 37.49538 | -77.46280 | 20988 ft | 325 kts | 1° |
| 2026-05-04 22:46 | 37.51820 | -77.45914 | 20958 ft | 326 kts | 1° |
| 2026-05-04 22:46 | 37.54035 | -77.45556 | 20966 ft | 325 kts | 1° |
| 2026-05-04 22:46 | 37.56276 | -77.45193 | 20919 ft | 325 kts | 1° |
| 2026-05-04 22:46 | 37.58556 | -77.44826 | 20444 ft | 333 kts | 1° |
| 2026-05-04 22:47 | 37.60855 | -77.44285 | 20009 ft | 338 kts | 7° |
| 2026-05-04 22:47 | 37.63138 | -77.43559 | 19576 ft | 340 kts | 9° |
| 2026-05-04 22:47 | 37.65401 | -77.42806 | 19151 ft | 340 kts | 9° |
| 2026-05-04 22:47 | 37.67697 | -77.42053 | 18730 ft | 341 kts | 9° |
| 2026-05-04 22:48 | 37.69994 | -77.41320 | 18312 ft | 341 kts | 9° |
| 2026-05-04 22:48 | 37.72304 | -77.40597 | 17842 ft | 341 kts | 8° |
| 2026-05-04 22:48 | 37.74619 | -77.39880 | 17369 ft | 341 kts | 8° |
| 2026-05-04 22:48 | 37.76931 | -77.39164 | 16900 ft | 341 kts | 8° |
| 2026-05-04 22:49 | 37.79211 | -77.38460 | 16444 ft | 341 kts | 8° |
| 2026-05-04 22:49 | 37.81517 | -77.37747 | 15993 ft | 341 kts | 8° |
| 2026-05-04 22:49 | 37.83816 | -77.37036 | 15542 ft | 340 kts | 8° |
| 2026-05-04 22:49 | 37.86142 | -77.36316 | 15092 ft | 339 kts | 8° |
| 2026-05-04 22:50 | 37.88410 | -77.35614 | 14664 ft | 339 kts | 8° |
| 2026-05-04 22:50 | 37.90705 | -77.34904 | 14228 ft | 337 kts | 8° |
| 2026-05-04 22:50 | 37.92984 | -77.34203 | 13804 ft | 336 kts | 8° |
| 2026-05-04 22:50 | 37.95253 | -77.33505 | 13332 ft | 335 kts | 8° |
| 2026-05-04 22:51 | 37.97489 | -77.32818 | 12862 ft | 334 kts | 8° |
| 2026-05-04 22:51 | 37.99750 | -77.32122 | 12395 ft | 333 kts | 8° |
| 2026-05-04 22:51 | 38.02007 | -77.31427 | 11934 ft | 332 kts | 8° |
| 2026-05-04 22:51 | 38.04251 | -77.30735 | 11485 ft | 331 kts | 8° |
| 2026-05-04 22:52 | 38.06492 | -77.30043 | 11105 ft | 328 kts | 8° |
| 2026-05-04 22:52 | 38.08670 | -77.29362 | 11039 ft | 315 kts | 8° |
| 2026-05-04 22:52 | 38.10724 | -77.28714 | 11019 ft | 302 kts | 8° |
| 2026-05-04 22:52 | 38.12721 | -77.28083 | 10997 ft | 289 kts | 7° |
| 2026-05-04 22:53 | 38.14665 | -77.27474 | 10735 ft | 285 kts | 7° |
| 2026-05-04 22:53 | 38.16577 | -77.26875 | 10495 ft | 282 kts | 7° |
| 2026-05-04 22:53 | 38.18344 | -77.26321 | 10277 ft | 280 kts | 7° |
| 2026-05-04 22:53 | 38.20245 | -77.25722 | 10095 ft | 277 kts | 8° |
| 2026-05-04 22:54 | 38.22112 | -77.25056 | 10061 ft | 282 kts | 11° |
| 2026-05-04 22:54 | 38.23996 | -77.24336 | 10025 ft | 281 kts | 11° |
| 2026-05-04 22:54 | 38.25842 | -77.23622 | 10025 ft | 280 kts | 11° |
| 2026-05-04 22:54 | 38.27713 | -77.22904 | 10033 ft | 281 kts | 11° |
| 2026-05-04 22:55 | 38.29586 | -77.22190 | 10018 ft | 280 kts | 11° |
| 2026-05-04 22:55 | 38.31453 | -77.21480 | 10017 ft | 280 kts | 11° |
| 2026-05-04 22:55 | 38.33324 | -77.20770 | 10035 ft | 280 kts | 11° |
| 2026-05-04 22:55 | 38.35185 | -77.20065 | 10022 ft | 280 kts | 11° |
| 2026-05-04 22:56 | 38.37055 | -77.19355 | 10023 ft | 280 kts | 11° |
| 2026-05-04 22:56 | 38.38898 | -77.18648 | 10030 ft | 279 kts | 11° |
| 2026-05-04 22:56 | 38.40755 | -77.17931 | 10021 ft | 277 kts | 11° |
| 2026-05-04 22:56 | 38.42596 | -77.17220 | 10049 ft | 278 kts | 11° |
| 2026-05-04 22:57 | 38.44470 | -77.16499 | 10037 ft | 283 kts | 11° |
| 2026-05-04 22:57 | 38.46367 | -77.15766 | 10027 ft | 283 kts | 11° |
| 2026-05-04 22:57 | 38.48220 | -77.15049 | 10022 ft | 282 kts | 11° |
| 2026-05-04 22:57 | 38.50125 | -77.14311 | 10018 ft | 282 kts | 11° |
| 2026-05-04 22:58 | 38.51976 | -77.13595 | 10030 ft | 281 kts | 11° |
| 2026-05-04 22:58 | 38.53854 | -77.12869 | 10025 ft | 282 kts | 11° |
| 2026-05-04 22:58 | 38.55729 | -77.12143 | 10027 ft | 282 kts | 11° |
| 2026-05-04 22:58 | 38.57586 | -77.11423 | 10015 ft | 275 kts | 11° |
| 2026-05-04 22:59 | 38.59363 | -77.10732 | 10020 ft | 257 kts | 11° |
| 2026-05-04 22:59 | 38.61021 | -77.10090 | 9871 ft | 243 kts | 10° |
| 2026-05-04 22:59 | 38.62613 | -77.09478 | 9597 ft | 233 kts | 10° |
| 2026-05-04 22:59 | 38.64138 | -77.08891 | 9340 ft | 226 kts | 10° |
| 2026-05-04 23:00 | 38.65610 | -77.08324 | 9061 ft | 220 kts | 10° |
| 2026-05-04 23:00 | 38.67056 | -77.07767 | 8781 ft | 214 kts | 10° |
| 2026-05-04 23:00 | 38.68470 | -77.07223 | 8508 ft | 211 kts | 10° |
| 2026-05-04 23:00 | 38.69900 | -77.06912 | 8245 ft | 207 kts | 358° |
| 2026-05-04 23:01 | 38.71358 | -77.06789 | 7891 ft | 214 kts | 358° |
| 2026-05-04 23:01 | 38.72862 | -77.06665 | 7525 ft | 219 kts | 358° |
| 2026-05-04 23:01 | 38.74385 | -77.06526 | 7153 ft | 218 kts | 359° |
| 2026-05-04 23:01 | 38.75900 | -77.06391 | 6801 ft | 217 kts | 356° |
| 2026-05-04 23:02 | 38.77293 | -77.06878 | 6394 ft | 202 kts | 320° |
| 2026-05-04 23:02 | 38.78454 | -77.07868 | 6070 ft | 201 kts | 321° |
| 2026-05-04 23:02 | 38.79626 | -77.08830 | 6022 ft | 200 kts | 321° |
| 2026-05-04 23:02 | 38.80804 | -77.09795 | 6010 ft | 202 kts | 321° |
| 2026-05-04 23:03 | 38.81970 | -77.10750 | 6017 ft | 200 kts | 321° |
| 2026-05-04 23:03 | 38.83137 | -77.11713 | 6009 ft | 201 kts | 319° |
| 2026-05-04 23:03 | 38.84184 | -77.12870 | 6002 ft | 197 kts | 309° |
| 2026-05-04 23:03 | 38.85165 | -77.14116 | 5800 ft | 203 kts | 308° |
| 2026-05-04 23:04 | 38.86174 | -77.15406 | 5421 ft | 204 kts | 309° |
| 2026-05-04 23:04 | 38.87183 | -77.16683 | 5050 ft | 202 kts | 309° |
| 2026-05-04 23:04 | 38.88170 | -77.17923 | 4679 ft | 200 kts | 309° |
| 2026-05-04 23:04 | 38.89164 | -77.19168 | 4294 ft | 199 kts | 309° |
| 2026-05-04 23:05 | 38.90148 | -77.20396 | 3895 ft | 197 kts | 310° |
| 2026-05-04 23:05 | 38.91131 | -77.21587 | 3515 ft | 194 kts | 309° |
| 2026-05-04 23:05 | 38.92097 | -77.22798 | 3176 ft | 192 kts | 309° |
| 2026-05-04 23:05 | 38.93077 | -77.23976 | 2802 ft | 195 kts | 312° |
| 2026-05-04 23:06 | 38.94110 | -77.25113 | 2742 ft | 196 kts | 317° |
| 2026-05-04 23:06 | 38.95374 | -77.25601 | 2682 ft | 197 kts | 6° |
| 2026-05-04 23:06 | 38.96540 | -77.24739 | 2700 ft | 199 kts | 53° |
| 2026-05-04 23:06 | 38.97239 | -77.23217 | 2697 ft | 199 kts | 76° |
| 2026-05-04 23:07 | 38.97365 | -77.21523 | 2698 ft | 187 kts | 101° |
| 2026-05-04 23:07 | 38.97168 | -77.19882 | 2711 ft | 188 kts | 105° |
| 2026-05-04 23:07 | 38.96933 | -77.18223 | 2700 ft | 184 kts | 106° |
| 2026-05-04 23:07 | 38.96726 | -77.16804 | 2684 ft | 181 kts | 107° |
| 2026-05-04 23:08 | 38.96391 | -77.15292 | 2651 ft | 171 kts | 129° |
| 2026-05-04 23:08 | 38.95534 | -77.14205 | 2496 ft | 175 kts | 145° |
| 2026-05-04 23:08 | 38.94614 | -77.13194 | 2273 ft | 171 kts | 144° |
| 2026-05-04 23:08 | 38.93719 | -77.12209 | 2050 ft | 168 kts | 143° |
| 2026-05-04 23:09 | 38.92794 | -77.11334 | 1860 ft | 164 kts | 152° |
| 2026-05-04 23:09 | 38.91854 | -77.10568 | 1685 ft | 156 kts | 152° |
| 2026-05-04 23:09 | 38.90993 | -77.09807 | 1476 ft | 153 kts | 137° |
| 2026-05-04 23:09 | 38.90585 | -77.08529 | 1311 ft | 156 kts | 115° |
| 2026-05-04 23:10 | 38.90167 | -77.07242 | 1067 ft | 155 kts | 125° |
| 2026-05-04 23:10 | 38.89510 | -77.06197 | 825 ft | 148 kts | 141° |
| 2026-05-04 23:10 | 38.88709 | -77.05388 | 673 ft | 145 kts | 147° |
| 2026-05-04 23:10 | 38.87910 | -77.04603 | 433 ft | 142 kts | 147° |
| 2026-05-04 23:11 | 38.87073 | -77.04056 | 227 ft | 134 kts | 168° |
| 2026-05-04 23:11 | 38.86173 | -77.03887 | 55 ft | 127 kts | 175° |
| 2026-05-04 23:11 | 38.85384 | -77.03818 | 23 ft | 89 kts | 171° |
| 2026-05-04 23:11 | 38.84985 | -77.03767 | 23 ft | 31 kts | 179° |
| 2026-05-04 23:12 | 38.84873 | -77.03882 | 23 ft | 17 kts | 264° |
| 2026-05-04 23:12 | 38.84893 | -77.03942 | 24 ft | 4 kts | 326° |
| 2026-05-04 23:12 | 38.84926 | -77.03953 | 26 ft | 6 kts | 353° |
| 2026-05-04 23:12 | 38.84975 | -77.03955 | 24 ft | 7 kts | 0° |
| 2026-05-04 23:13 | 38.85051 | -77.03963 | 23 ft | 15 kts | 352° |
| 2026-05-04 23:13 | 38.85153 | -77.03977 | 25 ft | 15 kts | 359° |
| 2026-05-04 23:13 | 38.85254 | -77.03985 | 23 ft | 14 kts | 348° |
| 2026-05-04 23:13 | 38.85344 | -77.04000 | 24 ft | 11 kts | 343° |
| 2026-05-04 23:14 | 38.85385 | -77.04063 | 25 ft | 8 kts | 302° |
| 2026-05-04 23:14 | 38.85393 | -77.04079 | 25 ft | 0 kts | 302° |